Aeroporto :
LOGIN :

Iscrizione | Disclaimer

   EN    FR    IT 

 










Sommario :    VFR   VFR Marginale   IFR   IFR Intensivo   IFR Molto Intensivo
Visibilità : 
Base nubi : 
>= 8 km
>= 3000ft
5 / 8 km
1000 / 3000 ft
1500m / 5 km
500 / 1000 ft
800 / 1500m
200 / 500 ft
< 800m
< 200 ft
Simboli :   Temporali  Nebbia  Neve Forte  Precipitazioni Forti  Vento > 20 kt
SIGMETs :   Varie  Temporali  Ghiacco  Turbolenza  Onda orograficha  Ceneri Vulcaniche






- Altitudine del aeroporto : 3381 ft
- Codice IATA : KYA


LTAN - Konya AB

ULTIMO METAR :
  • 021322Z 24013G30KT 200V280 9999 FEW030CB BKN035 15/03 Q1007 RETS BECMG TL1400 16008KT TEMPO -TSRA RMK RWY19 27009KT 240V300

METARs OBSOLETI :
  • 021250Z 16012KT 120V200 9999 TS FEW030CB BKN035 15/04 Q1007 TEMPO -TSRA
  • 021221Z 15013KT 9999 TS FEW030CB BKN035 15/05 Q1007 TEMPO -TSRA RMK RWY19 16011KT 130V200
  • 021150Z 17012KT 140V200 9999 FEW030CB BKN040 BKN100 14/05 Q1008 RESHRA TEMPO -TSRA
  • 021122Z 16010KT 120V180 9999 FEW030CB SCT040 BKN100 14/06 Q1009 RESHRA TEMPO -TSRA RMK RWY19 19003KT 140V290
  • 021050Z 16007KT 120V200 9999 -SHRA FEW030CB SCT040 BKN100 13/05 Q1009 TEMPO 18018KT -TSRA
  • 021045Z 17007KT 120V200 9999 -SHRA FEW025CB SCT030 BKN080 13/06 Q1009 TEMPO 18018KT -TSRA RMK RWY19 17008KT 140V230

TAF TAF LTAN
Valido dal 02 a 12 ore il 02 a 21 ore UTC


021040Z 0212/0221 16008KT 9999 SCT040 BKN100
TEMPO 0212/0215 18018KT -TSRA FEW030CB BKN035



MetMap, La meteo Aeronautica in un colpo d'occhio ! - Copyright ORBIFLY Dicembre 2007 - Disclaimer

ORBIFLY MET'MAP TEAM :

Programmazione e sviluppo : Alexandra Zaïnal
Concezione : Baudouin d'Aumeries
Aiuto per la programmazione : Marc-Olivier Méhu
Supporto tecnico e logistico : Manuel Goepfert
Aiuto per la traduzione : Arnaldo La Scala

Contatto : metmap@orbifly.com




FONTI E CREDITI :

   NOAA